sensor_id;sensor_type;location;lat;lon;timestamp;pressure;altitude;pressure_sealevel;temperature;humidity
24558;BME280;12726;49.148;8.582;2023-04-23T00:00:47;99751.53;;;13.03;98.74
24558;BME280;12726;49.148;8.582;2023-04-23T00:03:35;99742.53;;;12.97;99.49
24558;BME280;12726;49.148;8.582;2023-04-23T00:06:22;99742.84;;;13.01;99.49
24558;BME280;12726;49.148;8.582;2023-04-23T00:09:10;99760.84;;;12.95;99.94
24558;BME280;12726;49.148;8.582;2023-04-23T00:12:01;99758.66;;;12.92;100.00
24558;BME280;12726;49.148;8.582;2023-04-23T00:14:47;99761.00;;;12.88;100.00
24558;BME280;12726;49.148;8.582;2023-04-23T00:17:32;99753.88;;;12.82;100.00
24558;BME280;12726;49.148;8.582;2023-04-23T00:20:20;99754.13;;;12.81;100.00
24558;BME280;12726;49.148;8.582;2023-04-23T00:23:06;99745.59;;;12.72;100.00
24558;BME280;12726;49.148;8.582;2023-04-23T00:25:53;99748.28;;;12.72;100.00
24558;BME280;12726;49.148;8.582;2023-04-23T00:28:40;99759.81;;;12.68;100.00
24558;BME280;12726;49.148;8.582;2023-04-23T00:31:26;99748.81;;;12.57;100.00
24558;BME280;12726;49.148;8.582;2023-04-23T00:34:11;99763.81;;;12.65;100.00
24558;BME280;12726;49.148;8.582;2023-04-23T00:36:57;99762.09;;;12.59;100.00
24558;BME280;12726;49.148;8.582;2023-04-23T00:39:43;99751.56;;;12.46;100.00
24558;BME280;12726;49.148;8.582;2023-04-23T00:42:29;99757.88;;;12.51;100.00
24558;BME280;12726;49.148;8.582;2023-04-23T00:45:15;99763.94;;;12.42;100.00
24558;BME280;12726;49.148;8.582;2023-04-23T00:48:01;99757.03;;;12.34;100.00
24558;BME280;12726;49.148;8.582;2023-04-23T00:50:47;99761.47;;;12.40;100.00
24558;BME280;12726;49.148;8.582;2023-04-23T00:53:32;99762.44;;;12.34;100.00
24558;BME280;12726;49.148;8.582;2023-04-23T00:56:18;99747.56;;;12.20;100.00
24558;BME280;12726;49.148;8.582;2023-04-23T00:59:04;99763.38;;;12.28;100.00
24558;BME280;12726;49.148;8.582;2023-04-23T01:01:51;99754.47;;;12.16;100.00
24558;BME280;12726;49.148;8.582;2023-04-23T01:04:37;99742.03;;;12.15;100.00
24558;BME280;12726;49.148;8.582;2023-04-23T01:07:22;99759.66;;;12.18;100.00
24558;BME280;12726;49.148;8.582;2023-04-23T01:10:08;99767.28;;;12.21;100.00
24558;BME280;12726;49.148;8.582;2023-04-23T01:12:55;99760.94;;;12.15;100.00
24558;BME280;12726;49.148;8.582;2023-04-23T01:15:41;99767.75;;;12.18;100.00
24558;BME280;12726;49.148;8.582;2023-04-23T01:18:28;99772.81;;;12.14;100.00
24558;BME280;12726;49.148;8.582;2023-04-23T01:21:16;99764.25;;;12.05;100.00
24558;BME280;12726;49.148;8.582;2023-04-23T01:24:04;99766.72;;;12.07;100.00
24558;BME280;12726;49.148;8.582;2023-04-23T01:26:49;99772.34;;;12.05;100.00
24558;BME280;12726;49.148;8.582;2023-04-23T01:29:37;99770.44;;;12.18;100.00
24558;BME280;12726;49.148;8.582;2023-04-23T01:32:25;99773.03;;;12.12;100.00
24558;BME280;12726;49.148;8.582;2023-04-23T01:35:11;99779.13;;;12.20;100.00
24558;BME280;12726;49.148;8.582;2023-04-23T01:37:58;99780.63;;;12.15;100.00
24558;BME280;12726;49.148;8.582;2023-04-23T01:40:46;99769.97;;;12.09;100.00
24558;BME280;12726;49.148;8.582;2023-04-23T01:43:32;99782.50;;;12.15;100.00
24558;BME280;12726;49.148;8.582;2023-04-23T01:46:19;99783.09;;;12.17;100.00
24558;BME280;12726;49.148;8.582;2023-04-23T01:49:05;99781.97;;;12.13;100.00
24558;BME280;12726;49.148;8.582;2023-04-23T01:51:50;99802.00;;;12.17;100.00
24558;BME280;12726;49.148;8.582;2023-04-23T01:54:36;99794.72;;;12.18;100.00
24558;BME280;12726;49.148;8.582;2023-04-23T01:57:23;99798.47;;;12.16;100.00
24558;BME280;12726;49.148;8.582;2023-04-23T02:00:11;99804.56;;;12.24;100.00
24558;BME280;12726;49.148;8.582;2023-04-23T02:02:57;99805.97;;;12.26;100.00
24558;BME280;12726;49.148;8.582;2023-04-23T02:05:43;99785.22;;;12.15;100.00
24558;BME280;12726;49.148;8.582;2023-04-23T02:08:28;99796.47;;;12.24;100.00
24558;BME280;12726;49.148;8.582;2023-04-23T02:11:14;99798.09;;;12.25;100.00
24558;BME280;12726;49.148;8.582;2023-04-23T02:16:35;99807.84;;;12.26;100.00
24558;BME280;12726;49.148;8.582;2023-04-23T02:19:21;99813.72;;;12.23;100.00
24558;BME280;12726;49.148;8.582;2023-04-23T02:22:06;99806.94;;;12.20;100.00
24558;BME280;12726;49.148;8.582;2023-04-23T02:24:52;99797.66;;;12.16;100.00
24558;BME280;12726;49.148;8.582;2023-04-23T02:27:37;99807.53;;;12.10;100.00
24558;BME280;12726;49.148;8.582;2023-04-23T02:30:23;99798.00;;;12.20;100.00
24558;BME280;12726;49.148;8.582;2023-04-23T02:33:10;99791.19;;;12.17;100.00
24558;BME280;12726;49.148;8.582;2023-04-23T02:35:55;99798.00;;;12.20;100.00
24558;BME280;12726;49.148;8.582;2023-04-23T02:38:40;99798.00;;;12.20;100.00
24558;BME280;12726;49.148;8.582;2023-04-23T02:41:27;99798.16;;;12.13;100.00
24558;BME280;12726;49.148;8.582;2023-04-23T02:44:13;99793.31;;;12.15;100.00
24558;BME280;12726;49.148;8.582;2023-04-23T02:46:58;99802.34;;;12.21;100.00
24558;BME280;12726;49.148;8.582;2023-04-23T02:49:45;99804.47;;;12.19;100.00
24558;BME280;12726;49.148;8.582;2023-04-23T02:52:30;99803.31;;;12.14;100.00
24558;BME280;12726;49.148;8.582;2023-04-23T02:55:16;99806.00;;;12.14;100.00
24558;BME280;12726;49.148;8.582;2023-04-23T02:58:01;99806.94;;;12.08;100.00
24558;BME280;12726;49.148;8.582;2023-04-23T03:00:47;99792.88;;;12.06;100.00
24558;BME280;12726;49.148;8.582;2023-04-23T03:03:32;99803.78;;;12.11;100.00
24558;BME280;12726;49.148;8.582;2023-04-23T03:06:19;99803.53;;;12.13;100.00
24558;BME280;12726;49.148;8.582;2023-04-23T03:09:04;99800.47;;;12.09;100.00
24558;BME280;12726;49.148;8.582;2023-04-23T03:11:50;99811.03;;;12.11;100.00
24558;BME280;12726;49.148;8.582;2023-04-23T03:14:35;99798.59;;;12.10;100.00
24558;BME280;12726;49.148;8.582;2023-04-23T03:17:21;99801.19;;;12.05;100.00
24558;BME280;12726;49.148;8.582;2023-04-23T03:20:08;99803.22;;;11.98;100.00
24558;BME280;12726;49.148;8.582;2023-04-23T03:22:56;99797.72;;;11.93;100.00
24558;BME280;12726;49.148;8.582;2023-04-23T03:25:41;99802.16;;;11.87;100.00
24558;BME280;12726;49.148;8.582;2023-04-23T03:28:26;99806.16;;;11.85;100.00
24558;BME280;12726;49.148;8.582;2023-04-23T03:31:12;99801.44;;;11.80;100.00
24558;BME280;12726;49.148;8.582;2023-04-23T03:33:57;99807.78;;;11.74;100.00
24558;BME280;12726;49.148;8.582;2023-04-23T03:36:43;99809.28;;;11.70;100.00
24558;BME280;12726;49.148;8.582;2023-04-23T03:39:32;99807.66;;;11.81;100.00
24558;BME280;12726;49.148;8.582;2023-04-23T03:42:18;99805.09;;;11.74;100.00
24558;BME280;12726;49.148;8.582;2023-04-23T03:45:04;99803.88;;;11.70;100.00
24558;BME280;12726;49.148;8.582;2023-04-23T03:47:50;99797.91;;;11.68;100.00
24558;BME280;12726;49.148;8.582;2023-04-23T03:50:35;99802.25;;;11.69;100.00
24558;BME280;12726;49.148;8.582;2023-04-23T03:53:23;99804.22;;;11.62;100.00
24558;BME280;12726;49.148;8.582;2023-04-23T03:56:10;99795.31;;;11.61;100.00
24558;BME280;12726;49.148;8.582;2023-04-23T03:58:55;99804.13;;;11.68;100.00
24558;BME280;12726;49.148;8.582;2023-04-23T04:01:41;99805.31;;;11.84;100.00
24558;BME280;12726;49.148;8.582;2023-04-23T04:04:26;99807.91;;;11.79;100.00
24558;BME280;12726;49.148;8.582;2023-04-23T04:07:12;99811.88;;;11.88;100.00
24558;BME280;12726;49.148;8.582;2023-04-23T04:09:58;99815.75;;;11.92;100.00
24558;BME280;12726;49.148;8.582;2023-04-23T04:12:47;99811.66;;;11.90;100.00
24558;BME280;12726;49.148;8.582;2023-04-23T04:15:32;99816.34;;;11.83;100.00
24558;BME280;12726;49.148;8.582;2023-04-23T04:18:18;99812.09;;;11.87;100.00
24558;BME280;12726;49.148;8.582;2023-04-23T04:21:04;99814.72;;;11.93;100.00
24558;BME280;12726;49.148;8.582;2023-04-23T04:23:50;99822.53;;;11.95;100.00
24558;BME280;12726;49.148;8.582;2023-04-23T04:26:36;99820.09;;;11.93;100.00
24558;BME280;12726;49.148;8.582;2023-04-23T04:29:23;99816.00;;;11.91;100.00
24558;BME280;12726;49.148;8.582;2023-04-23T04:32:09;99805.66;;;11.88;100.00
24558;BME280;12726;49.148;8.582;2023-04-23T04:34:56;99809.31;;;11.82;100.00
24558;BME280;12726;49.148;8.582;2023-04-23T04:37:41;99806.47;;;11.88;100.00
24558;BME280;12726;49.148;8.582;2023-04-23T04:40:28;99803.56;;;11.78;100.00
24558;BME280;12726;49.148;8.582;2023-04-23T04:43:13;99810.72;;;11.84;100.00
24558;BME280;12726;49.148;8.582;2023-04-23T04:46:01;99804.13;;;11.80;100.00
24558;BME280;12726;49.148;8.582;2023-04-23T04:48:47;99799.56;;;11.81;100.00
24558;BME280;12726;49.148;8.582;2023-04-23T04:51:32;99808.38;;;11.76;100.00
24558;BME280;12726;49.148;8.582;2023-04-23T04:54:17;99807.78;;;11.74;100.00
24558;BME280;12726;49.148;8.582;2023-04-23T04:57:02;99813.78;;;11.76;100.00
24558;BME280;12726;49.148;8.582;2023-04-23T04:59:48;99808.59;;;11.74;100.00
24558;BME280;12726;49.148;8.582;2023-04-23T05:02:35;99813.97;;;11.63;100.00
24558;BME280;12726;49.148;8.582;2023-04-23T05:05:22;99812.56;;;11.72;100.00
24558;BME280;12726;49.148;8.582;2023-04-23T05:08:07;99818.06;;;11.65;100.00
24558;BME280;12726;49.148;8.582;2023-04-23T05:10:53;99825.69;;;11.68;100.00
24558;BME280;12726;49.148;8.582;2023-04-23T05:13:38;99830.38;;;11.73;100.00
24558;BME280;12726;49.148;8.582;2023-04-23T05:16:24;99823.28;;;11.79;100.00
24558;BME280;12726;49.148;8.582;2023-04-23T05:19:10;99820.81;;;11.77;100.00
24558;BME280;12726;49.148;8.582;2023-04-23T05:21:55;99817.75;;;11.85;100.00
24558;BME280;12726;49.148;8.582;2023-04-23T05:24:41;99812.94;;;11.87;100.00
24558;BME280;12726;49.148;8.582;2023-04-23T05:27:26;99821.59;;;12.01;100.00
24558;BME280;12726;49.148;8.582;2023-04-23T05:30:12;99819.88;;;12.06;100.00
24558;BME280;12726;49.148;8.582;2023-04-23T05:32:57;99815.38;;;12.12;100.00
24558;BME280;12726;49.148;8.582;2023-04-23T05:35:44;99805.38;;;12.24;100.00
24558;BME280;12726;49.148;8.582;2023-04-23T05:38:29;99795.66;;;12.23;100.00
24558;BME280;12726;49.148;8.582;2023-04-23T05:41:16;99813.59;;;12.29;100.00
24558;BME280;12726;49.148;8.582;2023-04-23T05:44:01;99815.00;;;12.32;100.00
24558;BME280;12726;49.148;8.582;2023-04-23T05:46:46;99806.06;;;12.31;100.00
24558;BME280;12726;49.148;8.582;2023-04-23T05:49:32;99813.94;;;12.33;100.00
24558;BME280;12726;49.148;8.582;2023-04-23T05:52:18;99812.16;;;12.38;100.00
24558;BME280;12726;49.148;8.582;2023-04-23T05:55:05;99818.47;;;12.44;100.00
24558;BME280;12726;49.148;8.582;2023-04-23T05:57:50;99810.63;;;12.42;100.00
24558;BME280;12726;49.148;8.582;2023-04-23T06:00:36;99821.88;;;12.51;100.00
24558;BME280;12726;49.148;8.582;2023-04-23T06:03:23;99813.97;;;12.61;100.00
24558;BME280;12726;49.148;8.582;2023-04-23T06:06:09;99817.13;;;12.70;100.00
24558;BME280;12726;49.148;8.582;2023-04-23T06:08:56;99828.75;;;12.70;100.00
24558;BME280;12726;49.148;8.582;2023-04-23T06:11:41;99819.16;;;12.63;100.00
24558;BME280;12726;49.148;8.582;2023-04-23T06:14:26;99812.53;;;12.70;100.00
24558;BME280;12726;49.148;8.582;2023-04-23T06:17:12;99811.38;;;12.66;100.00
24558;BME280;12726;49.148;8.582;2023-04-23T06:19:58;99810.25;;;12.79;100.00
24558;BME280;12726;49.148;8.582;2023-04-23T06:22:43;99811.88;;;13.08;100.00
24558;BME280;12726;49.148;8.582;2023-04-23T06:25:29;99811.88;;;13.37;100.00
24558;BME280;12726;49.148;8.582;2023-04-23T06:28:15;99804.91;;;13.74;100.00
24558;BME280;12726;49.148;8.582;2023-04-23T06:31:00;99817.50;;;14.24;98.40
24558;BME280;12726;49.148;8.582;2023-04-23T06:33:46;99819.50;;;14.72;95.55
24558;BME280;12726;49.148;8.582;2023-04-23T06:36:32;99817.53;;;15.16;94.03
24558;BME280;12726;49.148;8.582;2023-04-23T06:39:18;99809.72;;;15.19;89.87
24558;BME280;12726;49.148;8.582;2023-04-23T06:42:05;99803.09;;;15.69;88.35
24558;BME280;12726;49.148;8.582;2023-04-23T06:44:50;99803.91;;;16.12;85.55
24558;BME280;12726;49.148;8.582;2023-04-23T06:47:36;99803.25;;;16.47;83.11
24558;BME280;12726;49.148;8.582;2023-04-23T06:50:22;99794.16;;;16.83;80.26
24558;BME280;12726;49.148;8.582;2023-04-23T06:53:07;99790.94;;;17.06;80.06
24558;BME280;12726;49.148;8.582;2023-04-23T06:55:52;99795.59;;;17.51;76.20
24558;BME280;12726;49.148;8.582;2023-04-23T06:58:39;99793.97;;;17.25;76.37
24558;BME280;12726;49.148;8.582;2023-04-23T07:01:24;99787.44;;;17.46;76.50
24558;BME280;12726;49.148;8.582;2023-04-23T07:04:10;99779.56;;;17.65;74.05
24558;BME280;12726;49.148;8.582;2023-04-23T07:06:55;99782.78;;;17.77;73.89
24558;BME280;12726;49.148;8.582;2023-04-23T07:09:40;99781.66;;;17.98;71.91
24558;BME280;12726;49.148;8.582;2023-04-23T07:12:26;99780.91;;;18.62;70.59
24558;BME280;12726;49.148;8.582;2023-04-23T07:15:12;99775.91;;;18.80;66.53
24558;BME280;12726;49.148;8.582;2023-04-23T07:17:58;99778.75;;;18.54;66.64
24558;BME280;12726;49.148;8.582;2023-04-23T07:20:49;99780.00;;;18.82;66.56
24558;BME280;12726;49.148;8.582;2023-04-23T07:23:45;99769.41;;;18.75;65.51
24558;BME280;12726;49.148;8.582;2023-04-23T07:26:31;99765.75;;;18.95;66.87
24558;BME280;12726;49.148;8.582;2023-04-23T07:29:16;99768.38;;;18.66;63.92
24558;BME280;12726;49.148;8.582;2023-04-23T07:32:03;99771.44;;;18.45;64.73
24558;BME280;12726;49.148;8.582;2023-04-23T07:34:48;99758.81;;;18.64;65.41
24558;BME280;12726;49.148;8.582;2023-04-23T07:37:34;99764.28;;;19.08;64.15
24558;BME280;12726;49.148;8.582;2023-04-23T07:40:20;99761.53;;;19.47;62.02
24558;BME280;12726;49.148;8.582;2023-04-23T07:43:05;99754.19;;;19.08;63.42
24558;BME280;12726;49.148;8.582;2023-04-23T07:45:50;99746.78;;;19.14;60.08
24558;BME280;12726;49.148;8.582;2023-04-23T07:48:43;99756.16;;;18.98;58.79
24558;BME280;12726;49.148;8.582;2023-04-23T07:51:28;99756.47;;;19.30;58.94
24558;BME280;12726;49.148;8.582;2023-04-23T07:54:14;99755.50;;;19.50;59.96
24558;BME280;12726;49.148;8.582;2023-04-23T07:57:00;99758.19;;;19.55;58.20
24558;BME280;12726;49.148;8.582;2023-04-23T07:59:45;99756.41;;;19.69;58.51
24558;BME280;12726;49.148;8.582;2023-04-23T08:02:31;99751.50;;;19.95;57.72
24558;BME280;12726;49.148;8.582;2023-04-23T08:05:18;99753.38;;;20.00;55.70
24558;BME280;12726;49.148;8.582;2023-04-23T08:08:03;99747.72;;;19.91;59.36
24558;BME280;12726;49.148;8.582;2023-04-23T08:10:48;99740.28;;;20.44;56.59
24558;BME280;12726;49.148;8.582;2023-04-23T08:13:34;99738.88;;;20.47;55.21
24558;BME280;12726;49.148;8.582;2023-04-23T08:16:19;99738.59;;;20.01;56.04
24558;BME280;12726;49.148;8.582;2023-04-23T08:19:05;99729.09;;;19.06;58.30
24558;BME280;12726;49.148;8.582;2023-04-23T08:21:51;99728.44;;;19.20;57.38
24558;BME280;12726;49.148;8.582;2023-04-23T08:24:37;99727.44;;;19.73;57.76
24558;BME280;12726;49.148;8.582;2023-04-23T08:27:22;99728.38;;;19.87;54.97
24558;BME280;12726;49.148;8.582;2023-04-23T08:30:08;99729.19;;;19.30;56.60
24558;BME280;12726;49.148;8.582;2023-04-23T08:32:53;99724.53;;;18.53;58.57
24558;BME280;12726;49.148;8.582;2023-04-23T08:35:39;99719.09;;;17.78;59.84
24558;BME280;12726;49.148;8.582;2023-04-23T08:38:26;99709.31;;;17.62;61.80
24558;BME280;12726;49.148;8.582;2023-04-23T08:41:13;99714.25;;;18.39;59.24
24558;BME280;12726;49.148;8.582;2023-04-23T08:44:06;99720.84;;;19.11;58.59
24558;BME280;12726;49.148;8.582;2023-04-23T08:46:57;99711.97;;;20.11;57.11
24558;BME280;12726;49.148;8.582;2023-04-23T08:49:45;99712.94;;;19.97;55.92
24558;BME280;12726;49.148;8.582;2023-04-23T08:52:34;99709.22;;;20.11;55.07
24558;BME280;12726;49.148;8.582;2023-04-23T08:55:24;99712.59;;;20.51;53.98
24558;BME280;12726;49.148;8.582;2023-04-23T08:58:10;99711.56;;;20.23;52.93
24558;BME280;12726;49.148;8.582;2023-04-23T09:00:56;99713.94;;;20.06;56.62
24558;BME280;12726;49.148;8.582;2023-04-23T09:03:41;99716.91;;;20.09;54.29
24558;BME280;12726;49.148;8.582;2023-04-23T09:06:28;99704.94;;;19.81;52.61
24558;BME280;12726;49.148;8.582;2023-04-23T09:09:15;99710.91;;;19.26;54.21
24558;BME280;12726;49.148;8.582;2023-04-23T09:12:03;99708.19;;;18.97;57.34
24558;BME280;12726;49.148;8.582;2023-04-23T09:14:49;99700.66;;;18.78;56.92
24558;BME280;12726;49.148;8.582;2023-04-23T09:17:35;99698.66;;;19.23;57.80
24558;BME280;12726;49.148;8.582;2023-04-23T09:20:20;99696.75;;;19.81;55.85
24558;BME280;12726;49.148;8.582;2023-04-23T09:23:06;99692.63;;;20.08;56.71
24558;BME280;12726;49.148;8.582;2023-04-23T09:25:52;99688.66;;;21.31;54.47
24558;BME280;12726;49.148;8.582;2023-04-23T09:28:38;99686.00;;;22.00;51.06
24558;BME280;12726;49.148;8.582;2023-04-23T09:31:24;99671.09;;;22.42;51.65
24558;BME280;12726;49.148;8.582;2023-04-23T09:34:09;99686.97;;;22.67;44.76
24558;BME280;12726;49.148;8.582;2023-04-23T09:36:54;99671.75;;;22.61;46.26
24558;BME280;12726;49.148;8.582;2023-04-23T09:39:40;99668.09;;;22.79;48.29
24558;BME280;12726;49.148;8.582;2023-04-23T09:42:26;99662.31;;;23.12;48.08
24558;BME280;12726;49.148;8.582;2023-04-23T09:45:13;99648.59;;;23.65;43.40
24558;BME280;12726;49.148;8.582;2023-04-23T09:47:58;99642.25;;;23.33;43.26
24558;BME280;12726;49.148;8.582;2023-04-23T09:50:43;99644.06;;;22.49;43.82
24558;BME280;12726;49.148;8.582;2023-04-23T09:53:39;99642.97;;;22.72;44.73
24558;BME280;12726;49.148;8.582;2023-04-23T09:56:25;99636.94;;;23.06;42.93
24558;BME280;12726;49.148;8.582;2023-04-23T09:59:21;99631.81;;;23.44;40.27
24558;BME280;12726;49.148;8.582;2023-04-23T10:02:09;99632.41;;;23.01;44.25
24558;BME280;12726;49.148;8.582;2023-04-23T10:04:54;99627.03;;;22.96;42.55
24558;BME280;12726;49.148;8.582;2023-04-23T10:07:40;99620.56;;;22.92;42.96
24558;BME280;12726;49.148;8.582;2023-04-23T10:10:25;99619.25;;;23.21;39.66
24558;BME280;12726;49.148;8.582;2023-04-23T10:13:10;99625.00;;;22.44;40.50
24558;BME280;12726;49.148;8.582;2023-04-23T10:15:57;99609.66;;;21.52;42.55
24558;BME280;12726;49.148;8.582;2023-04-23T10:18:45;99605.28;;;21.05;41.36
24558;BME280;12726;49.148;8.582;2023-04-23T10:21:32;99593.94;;;20.98;41.73
24558;BME280;12726;49.148;8.582;2023-04-23T10:24:18;99605.78;;;21.53;43.57
24558;BME280;12726;49.148;8.582;2023-04-23T10:27:10;99586.81;;;21.84;39.52
24558;BME280;12726;49.148;8.582;2023-04-23T10:29:56;99589.13;;;22.04;41.23
24558;BME280;12726;49.148;8.582;2023-04-23T10:32:43;99584.31;;;20.68;42.26
24558;BME280;12726;49.148;8.582;2023-04-23T10:35:30;99588.78;;;20.64;43.06
24558;BME280;12726;49.148;8.582;2023-04-23T10:38:17;99576.38;;;20.15;42.83
24558;BME280;12726;49.148;8.582;2023-04-23T10:41:03;99581.28;;;20.69;43.89
24558;BME280;12726;49.148;8.582;2023-04-23T10:43:51;99570.31;;;20.88;41.57
24558;BME280;12726;49.148;8.582;2023-04-23T10:46:37;99563.34;;;21.09;42.21
24558;BME280;12726;49.148;8.582;2023-04-23T10:49:23;99565.88;;;21.06;41.57
24558;BME280;12726;49.148;8.582;2023-04-23T10:52:12;99556.91;;;21.74;40.97
24558;BME280;12726;49.148;8.582;2023-04-23T10:54:58;99556.84;;;22.15;42.14
24558;BME280;12726;49.148;8.582;2023-04-23T10:57:57;99560.47;;;22.69;37.69
24558;BME280;12726;49.148;8.582;2023-04-23T11:00:43;99564.94;;;22.20;39.10
24558;BME280;12726;49.148;8.582;2023-04-23T11:03:31;99571.44;;;22.10;39.21
24558;BME280;12726;49.148;8.582;2023-04-23T11:06:19;99556.59;;;21.62;40.33
24558;BME280;12726;49.148;8.582;2023-04-23T11:09:36;99556.22;;;20.81;41.40
24558;BME280;12726;49.148;8.582;2023-04-23T11:12:31;99555.84;;;20.69;42.89
24558;BME280;12726;49.148;8.582;2023-04-23T11:15:18;99548.44;;;21.02;42.42
24558;BME280;12726;49.148;8.582;2023-04-23T11:18:03;99552.34;;;21.28;40.70
24558;BME280;12726;49.148;8.582;2023-04-23T11:20:49;99552.44;;;21.37;41.58
24558;BME280;12726;49.148;8.582;2023-04-23T11:23:34;99537.72;;;20.22;44.34
24558;BME280;12726;49.148;8.582;2023-04-23T11:26:21;99528.81;;;20.35;43.80
24558;BME280;12726;49.148;8.582;2023-04-23T11:29:12;99533.28;;;21.23;44.07
24558;BME280;12726;49.148;8.582;2023-04-23T11:31:58;99529.19;;;21.62;42.45
24558;BME280;12726;49.148;8.582;2023-04-23T11:34:45;99517.22;;;21.71;43.45
24558;BME280;12726;49.148;8.582;2023-04-23T11:37:33;99515.78;;;21.60;40.62
24558;BME280;12726;49.148;8.582;2023-04-23T11:40:22;99510.25;;;21.52;41.55
24558;BME280;12726;49.148;8.582;2023-04-23T11:43:08;99505.47;;;21.57;41.53
24558;BME280;12726;49.148;8.582;2023-04-23T11:45:54;99497.16;;;20.48;42.58
24558;BME280;12726;49.148;8.582;2023-04-23T11:48:40;99499.25;;;21.10;43.15
24558;BME280;12726;49.148;8.582;2023-04-23T11:51:25;99493.94;;;21.82;41.24
24558;BME280;12726;49.148;8.582;2023-04-23T11:54:11;99493.78;;;20.83;42.97
24558;BME280;12726;49.148;8.582;2023-04-23T11:56:57;99474.03;;;21.41;43.36
24558;BME280;12726;49.148;8.582;2023-04-23T11:59:44;99478.66;;;21.68;42.42
24558;BME280;12726;49.148;8.582;2023-04-23T12:02:30;99475.13;;;22.03;42.03
24558;BME280;12726;49.148;8.582;2023-04-23T12:05:15;99476.00;;;21.76;41.49
24558;BME280;12726;49.148;8.582;2023-04-23T12:08:07;99459.78;;;21.30;42.53
24558;BME280;12726;49.148;8.582;2023-04-23T12:10:54;99457.81;;;21.03;42.99
24558;BME280;12726;49.148;8.582;2023-04-23T12:13:44;99452.97;;;21.00;42.25
24558;BME280;12726;49.148;8.582;2023-04-23T12:16:35;99443.22;;;20.81;44.13
24558;BME280;12726;49.148;8.582;2023-04-23T12:19:25;99453.44;;;20.61;45.07
24558;BME280;12726;49.148;8.582;2023-04-23T12:22:11;99443.25;;;20.35;44.73
24558;BME280;12726;49.148;8.582;2023-04-23T12:24:56;99441.25;;;19.89;46.85
24558;BME280;12726;49.148;8.582;2023-04-23T12:27:43;99428.22;;;20.32;46.94
24558;BME280;12726;49.148;8.582;2023-04-23T12:30:31;99427.56;;;20.40;44.78
24558;BME280;12726;49.148;8.582;2023-04-23T12:33:19;99418.81;;;20.84;43.82
24558;BME280;12726;49.148;8.582;2023-04-23T12:36:10;99412.59;;;21.33;43.16
24558;BME280;12726;49.148;8.582;2023-04-23T12:39:20;99423.56;;;21.20;46.44
24558;BME280;12726;49.148;8.582;2023-04-23T12:42:06;99415.47;;;20.87;46.88
24558;BME280;12726;49.148;8.582;2023-04-23T12:44:53;99407.75;;;21.30;47.22
24558;BME280;12726;49.148;8.582;2023-04-23T12:47:39;99411.75;;;21.46;46.18
24558;BME280;12726;49.148;8.582;2023-04-23T12:50:25;99408.88;;;21.29;47.13
24558;BME280;12726;49.148;8.582;2023-04-23T12:53:11;99407.25;;;21.01;45.91
24558;BME280;12726;49.148;8.582;2023-04-23T12:55:56;99407.25;;;21.01;45.97
24558;BME280;12726;49.148;8.582;2023-04-23T12:58:41;99387.66;;;21.35;46.38
24558;BME280;12726;49.148;8.582;2023-04-23T13:01:27;99385.84;;;21.66;44.75
24558;BME280;12726;49.148;8.582;2023-04-23T13:04:13;99383.06;;;21.80;45.29
24558;BME280;12726;49.148;8.582;2023-04-23T13:06:59;99379.88;;;21.86;44.38
24558;BME280;12726;49.148;8.582;2023-04-23T13:09:45;99376.06;;;21.52;45.46
24558;BME280;12726;49.148;8.582;2023-04-23T13:12:30;99372.31;;;21.70;44.65
24558;BME280;12726;49.148;8.582;2023-04-23T13:15:15;99361.66;;;21.91;44.46
24558;BME280;12726;49.148;8.582;2023-04-23T13:18:01;99362.91;;;22.29;42.31
24558;BME280;12726;49.148;8.582;2023-04-23T13:20:46;99345.91;;;22.18;42.29
24558;BME280;12726;49.148;8.582;2023-04-23T13:23:33;99339.25;;;22.11;43.22
24558;BME280;12726;49.148;8.582;2023-04-23T13:26:18;99340.38;;;22.10;42.59
24558;BME280;12726;49.148;8.582;2023-04-23T13:29:04;99338.06;;;22.03;43.57
24558;BME280;12726;49.148;8.582;2023-04-23T13:31:50;99326.09;;;22.21;42.46
24558;BME280;12726;49.148;8.582;2023-04-23T13:34:35;99325.13;;;22.26;42.89
24558;BME280;12726;49.148;8.582;2023-04-23T13:37:21;99316.41;;;22.24;41.84
24558;BME280;12726;49.148;8.582;2023-04-23T13:40:09;99305.94;;;22.26;41.36
24558;BME280;12726;49.148;8.582;2023-04-23T13:42:55;99305.47;;;21.71;42.70
24558;BME280;12726;49.148;8.582;2023-04-23T13:45:40;99303.97;;;21.65;43.30
24558;BME280;12726;49.148;8.582;2023-04-23T13:48:25;99289.84;;;21.27;42.14
24558;BME280;12726;49.148;8.582;2023-04-23T13:51:13;99289.63;;;20.87;42.99
24558;BME280;12726;49.148;8.582;2023-04-23T13:53:59;99282.13;;;20.79;43.57
24558;BME280;12726;49.148;8.582;2023-04-23T13:56:46;99279.53;;;21.10;44.22
24558;BME280;12726;49.148;8.582;2023-04-23T13:59:31;99280.13;;;21.21;46.20
24558;BME280;12726;49.148;8.582;2023-04-23T14:02:17;99265.56;;;21.34;43.33
24558;BME280;12726;49.148;8.582;2023-04-23T14:05:02;99267.69;;;21.59;43.01
24558;BME280;12726;49.148;8.582;2023-04-23T14:07:49;99260.16;;;21.42;43.34
24558;BME280;12726;49.148;8.582;2023-04-23T14:10:34;99245.34;;;21.21;43.62
24558;BME280;12726;49.148;8.582;2023-04-23T14:13:21;99239.28;;;21.55;42.31
24558;BME280;12726;49.148;8.582;2023-04-23T14:16:07;99225.69;;;21.19;43.36
24558;BME280;12726;49.148;8.582;2023-04-23T14:18:52;99225.63;;;20.97;44.22
24558;BME280;12726;49.148;8.582;2023-04-23T14:21:37;99226.53;;;21.06;45.03
24558;BME280;12726;49.148;8.582;2023-04-23T14:24:27;99221.72;;;21.11;45.74
24558;BME280;12726;49.148;8.582;2023-04-23T14:27:13;99214.34;;;21.34;41.83
24558;BME280;12726;49.148;8.582;2023-04-23T14:30:01;99211.25;;;21.27;42.50
24558;BME280;12726;49.148;8.582;2023-04-23T14:32:48;99206.16;;;21.34;40.82
24558;BME280;12726;49.148;8.582;2023-04-23T14:35:33;99206.22;;;21.43;42.83
24558;BME280;12726;49.148;8.582;2023-04-23T14:38:19;99199.63;;;21.44;41.31